^^
Paulen-Weather Station Historical Data
Daily Summary for October 01, 2022 Units:  Metric    English   Both
Daily Weekly Monthly Yearly Custom
  High: Low: Average:
Temperature: 13 °C 12 °C 12.8 °C
Dew Point: 12 °C 11 °C 11.9 °C
Humidity: 97% 89% 94%
Wind Speed: 61km/h 32km/h 43.7km/h
Wind Gust: 51km/h - -
Wind- - SSE
Pressure: 998.75 hPa 993.02 hPa -
Precipitation: 7.19 mm    
Historical Graphs
 
 
Tabular Data for October 01, 2022
Time Temperature Dew Point Pressure Wind Wind Speed Wind Gust Humidity Rainfall Rate (Hourly) solar
00:04 13 °C 11 °C 998.75 hPa SSE 32 km/h 29 km/h 90% 0 mm 0 W/m2
00:09 13 °C 11 °C 998.68 hPa SSE 36 km/h 32 km/h 90% 0 mm 0 W/m2
00:14 13 °C 11 °C 998.54 hPa SSE 41 km/h 37 km/h 90% 0 mm 0 W/m2
00:19 13 °C 12 °C 998.51 hPa SSE 34 km/h 33 km/h 90% 0 mm 0 W/m2
00:24 13 °C 12 °C 998.34 hPa SSE 35 km/h 32 km/h 91% 0 mm 0 W/m2
00:29 13 °C 12 °C 998.27 hPa SSE 38 km/h 31 km/h 91% 0 mm 0 W/m2
00:34 13 °C 12 °C 998.24 hPa SSE 37 km/h 34 km/h 91% 0 mm 0 W/m2
00:39 13 °C 12 °C 998.1 hPa SSE 38 km/h 35 km/h 90% 0 mm 0 W/m2
00:44 13 °C 12 °C 998.04 hPa SSE 40 km/h 34 km/h 91% 0 mm 0 W/m2
00:49 13 °C 12 °C 997.97 hPa SSE 42 km/h 36 km/h 91% 0 mm 0 W/m2
00:54 13 °C 12 °C 997.93 hPa SSE 40 km/h 33 km/h 91% 0 mm 0 W/m2
00:59 13 °C 11 °C 997.83 hPa SSE 47 km/h 38 km/h 89% 0 mm 0 W/m2
01:04 13 °C 11 °C 997.73 hPa SSE 47 km/h 40 km/h 89% 0.2 mm 0 W/m2
01:09 13 °C 11 °C 997.66 hPa SSE 42 km/h 41 km/h 89% 0.2 mm 0 W/m2
01:14 13 °C 11 °C 997.6 hPa SSE 44 km/h 39 km/h 90% 0.2 mm 0 W/m2
01:19 13 °C 11 °C 997.49 hPa SSE 41 km/h 39 km/h 89% 0.2 mm 0 W/m2
01:24 13 °C 11 °C 997.46 hPa SSE 40 km/h 36 km/h 89% 0.2 mm 0 W/m2
01:29 13 °C 12 °C 997.39 hPa SSE 47 km/h 38 km/h 90% 0.2 mm 0 W/m2
01:34 13 °C 12 °C 997.36 hPa SSE 41 km/h 43 km/h 91% 0.2 mm 0 W/m2
01:39 13 °C 12 °C 997.26 hPa SSE 41 km/h 36 km/h 91% 0.2 mm 0 W/m2
01:44 13 °C 12 °C 997.19 hPa SSE 40 km/h 36 km/h 91% 0.2 mm 0 W/m2
01:49 13 °C 12 °C 997.16 hPa SSE 43 km/h 38 km/h 92% 0.2 mm 0 W/m2
01:54 13 °C 12 °C 997.02 hPa SSE 44 km/h 37 km/h 91% 0.2 mm 0 W/m2
01:59 13 °C 12 °C 996.89 hPa SSE 43 km/h 38 km/h 91% 0.2 mm 0 W/m2
02:04 13 °C 12 °C 996.82 hPa SSE 42 km/h 36 km/h 91% 0.2 mm 0 W/m2
02:09 13 °C 12 °C 996.68 hPa SSE 42 km/h 35 km/h 91% 0 mm 0 W/m2
02:14 13 °C 12 °C 996.58 hPa SSE 43 km/h 39 km/h 91% 0 mm 0 W/m2
02:19 13 °C 12 °C 996.51 hPa SSE 45 km/h 39 km/h 91% 0 mm 0 W/m2
02:24 13 °C 12 °C 996.41 hPa SSE 44 km/h 38 km/h 91% 0 mm 0 W/m2
02:29 13 °C 12 °C 996.41 hPa SSE 43 km/h 38 km/h 92% 0 mm 0 W/m2
02:34 13 °C 12 °C 996.34 hPa SSE 41 km/h 38 km/h 93% 0 mm 0 W/m2
02:39 13 °C 12 °C 996.34 hPa SSE 37 km/h 30 km/h 93% 0 mm 0 W/m2
02:44 13 °C 12 °C 996.24 hPa SSE 38 km/h 36 km/h 94% 0 mm 0 W/m2
02:49 13 °C 12 °C 996.17 hPa SSE 37 km/h 31 km/h 94% 0 mm 0 W/m2
02:54 13 °C 12 °C 996.11 hPa SSE 40 km/h 35 km/h 94% 0.2 mm 0 W/m2
02:59 13 °C 12 °C 996.04 hPa SSE 36 km/h 31 km/h 94% 0.2 mm 0 W/m2
03:04 13 °C 12 °C 996 hPa SSE 43 km/h 39 km/h 94% 0.2 mm 0 W/m2
03:09 13 °C 12 °C 995.97 hPa SSE 45 km/h 41 km/h 94% 0.2 mm 0 W/m2
03:14 13 °C 12 °C 995.9 hPa SSE 45 km/h 40 km/h 94% 0.41 mm 0 W/m2
03:19 13 °C 12 °C 995.8 hPa SSE 42 km/h 34 km/h 95% 0.61 mm 0 W/m2
03:24 13 °C 12 °C 995.7 hPa SSE 42 km/h 36 km/h 95% 0.79 mm 0 W/m2
03:29 13 °C 12 °C 995.56 hPa SSE 39 km/h 41 km/h 95% 0.99 mm 0 W/m2
03:34 13 °C 12 °C 995.56 hPa SSE 46 km/h 42 km/h 95% 1.4 mm 0 W/m2
03:39 13 °C 12 °C 995.46 hPa SSE 42 km/h 38 km/h 95% 1.4 mm 0 W/m2
03:44 13 °C 12 °C 995.33 hPa SSE 50 km/h 46 km/h 95% 1.6 mm 0 W/m2
03:49 13 °C 12 °C 995.36 hPa SSE 46 km/h 40 km/h 95% 1.6 mm 0 W/m2
03:54 13 °C 12 °C 995.36 hPa SSE 42 km/h 36 km/h 95% 1.6 mm 0 W/m2
03:59 13 °C 12 °C 995.26 hPa SSE 45 km/h 38 km/h 95% 1.6 mm 0 W/m2
04:04 13 °C 12 °C 995.16 hPa SSE 47 km/h 41 km/h 95% 1.6 mm 0 W/m2
04:09 13 °C 12 °C 995.09 hPa SSE 42 km/h 36 km/h 95% 1.6 mm 0 W/m2
04:14 13 °C 12 °C 995.02 hPa SSE 41 km/h 36 km/h 95% 1.4 mm 0 W/m2
04:19 13 °C 12 °C 994.95 hPa SSE 41 km/h 39 km/h 95% 1.19 mm 0 W/m2
04:24 13 °C 12 °C 994.92 hPa SSE 41 km/h 35 km/h 95% 1.4 mm 0 W/m2
04:29 13 °C 12 °C 994.85 hPa SSE 43 km/h 37 km/h 95% 1.19 mm 0 W/m2
04:34 13 °C 12 °C 994.82 hPa SSE 44 km/h 37 km/h 95% 0.99 mm 0 W/m2
04:39 13 °C 12 °C 994.75 hPa SSE 45 km/h 40 km/h 95% 0.79 mm 0 W/m2
04:44 13 °C 12 °C 994.72 hPa SSE 40 km/h 35 km/h 95% 0.79 mm 0 W/m2
04:49 13 °C 12 °C 994.68 hPa SSE 42 km/h 38 km/h 95% 0.61 mm 0 W/m2
04:54 13 °C 12 °C 994.58 hPa SSE 43 km/h 38 km/h 95% 0.61 mm 0 W/m2
04:59 13 °C 12 °C 994.51 hPa SSE 43 km/h 39 km/h 95% 0.41 mm 0 W/m2
05:04 13 °C 12 °C 994.41 hPa SSE 48 km/h 40 km/h 95% 0.61 mm 0 W/m2
05:09 13 °C 12 °C 994.41 hPa SSE 46 km/h 38 km/h 95% 0.61 mm 0 W/m2
05:14 13 °C 12 °C 994.35 hPa SSE 43 km/h 40 km/h 95% 0.61 mm 0 W/m2
05:19 13 °C 12 °C 994.31 hPa SSE 44 km/h 41 km/h 95% 0.79 mm 0 W/m2
05:24 13 °C 12 °C 994.18 hPa SSE 46 km/h 41 km/h 95% 0.61 mm 0 W/m2
05:29 13 °C 12 °C 994.14 hPa SSE 50 km/h 41 km/h 95% 0.61 mm 0 W/m2
05:34 12 °C 12 °C 994.04 hPa SSE 48 km/h 43 km/h 95% 0.61 mm 0 W/m2
05:39 12 °C 12 °C 993.91 hPa SSE 42 km/h 38 km/h 96% 0.99 mm 0 W/m2
05:44 12 °C 12 °C 993.74 hPa SSE 51 km/h 41 km/h 96% 1.4 mm 0 W/m2
05:49 12 °C 12 °C 993.63 hPa SSE 52 km/h 43 km/h 96% 1.6 mm 0 W/m2
05:54 13 °C 12 °C 993.6 hPa SSE 53 km/h 49 km/h 95% 1.6 mm 0 W/m2
05:59 13 °C 12 °C 993.63 hPa SSE 53 km/h 47 km/h 95% 1.6 mm 0 W/m2
06:04 12 °C 12 °C 993.63 hPa SSE 56 km/h 49 km/h 95% 1.6 mm 0 W/m2
06:09 13 °C 12 °C 993.63 hPa SSE 54 km/h 47 km/h 96% 1.4 mm 0 W/m2
06:14 12 °C 12 °C 993.67 hPa SSE 61 km/h 51 km/h 95% 1.6 mm 0 W/m2
06:19 12 °C 12 °C 993.7 hPa SSE 48 km/h 43 km/h 96% 1.8 mm 0 W/m2
06:24 12 °C 12 °C 993.7 hPa SSE 44 km/h 40 km/h 96% 1.8 mm 0 W/m2
06:29 12 °C 12 °C 993.63 hPa SSE 46 km/h 39 km/h 96% 2.01 mm 0 W/m2
06:34 12 °C 12 °C 993.63 hPa SSE 43 km/h 42 km/h 96% 2.01 mm 0 W/m2
06:39 13 °C 12 °C 993.6 hPa SSE 53 km/h 47 km/h 96% 2.01 mm 0 W/m2
06:44 13 °C 12 °C 993.67 hPa S 54 km/h 43 km/h 95% 1.8 mm 0 W/m2
06:49 13 °C 12 °C 993.74 hPa S 47 km/h 39 km/h 94% 1.6 mm 0 W/m2
06:54 13 °C 12 °C 993.67 hPa S 43 km/h 40 km/h 94% 1.6 mm 0 W/m2
06:59 13 °C 12 °C 993.74 hPa S 47 km/h 37 km/h 94% 1.6 mm 0 W/m2
07:04 13 °C 12 °C 993.77 hPa S 42 km/h 39 km/h 93% 1.6 mm 0 W/m2
07:09 13 °C 12 °C 993.8 hPa S 45 km/h 36 km/h 94% 1.6 mm 0 W/m2
07:14 13 °C 12 °C 993.77 hPa S 39 km/h 32 km/h 94% 1.6 mm 0 W/m2
07:19 13 °C 12 °C 993.7 hPa S 42 km/h 31 km/h 95% 1.19 mm 0 W/m2
07:24 13 °C 12 °C 993.7 hPa SSE 42 km/h 38 km/h 95% 1.19 mm 0 W/m2
07:29 13 °C 12 °C 993.7 hPa S 42 km/h 42 km/h 94% 0.99 mm 0 W/m2
07:34 13 °C 12 °C 993.74 hPa SSE 43 km/h 35 km/h 93% 0.79 mm 0 W/m2
07:39 13 °C 12 °C 993.67 hPa SSE 42 km/h 36 km/h 93% 0.41 mm 0 W/m2
07:44 13 °C 12 °C 993.67 hPa SSE 39 km/h 32 km/h 93% 0.41 mm 0 W/m2
07:49 13 °C 12 °C 993.74 hPa SSE 40 km/h 36 km/h 93% 0.41 mm 0 W/m2
07:54 13 °C 12 °C 993.7 hPa SSE 44 km/h 38 km/h 94% 0.41 mm 0 W/m2
07:59 13 °C 12 °C 993.67 hPa SSE 38 km/h 35 km/h 94% 0.41 mm 0 W/m2
08:04 13 °C 12 °C 993.6 hPa SSE 42 km/h 36 km/h 95% 0.79 mm 0 W/m2
08:09 12 °C 12 °C 993.46 hPa SSE 39 km/h 31 km/h 95% 0.79 mm 0 W/m2
08:14 12 °C 12 °C 993.33 hPa SSE 45 km/h 38 km/h 96% 0.99 mm 0 W/m2
08:19 12 °C 12 °C 993.3 hPa SSE 50 km/h 42 km/h 96% 1.19 mm 5 W/m2
08:24 12 °C 12 °C 993.26 hPa SSE 43 km/h 36 km/h 97% 1.19 mm 5 W/m2
08:29 12 °C 12 °C 993.23 hPa SSE 47 km/h 41 km/h 97% 1.4 mm 0 W/m2
08:34 12 °C 12 °C 993.26 hPa SSE 46 km/h 39 km/h 97% 1.4 mm 5 W/m2
08:39 12 °C 12 °C 993.26 hPa SSE 49 km/h 41 km/h 97% 1.6 mm 7 W/m2
08:44 12 °C 12 °C 993.13 hPa SSE 51 km/h 44 km/h 97% 1.4 mm 7 W/m2
08:49 12 °C 12 °C 993.09 hPa SSE 42 km/h 39 km/h 97% 1.4 mm 9 W/m2
08:54 12 °C 12 °C 993.02 hPa SSE 48 km/h 44 km/h 97% 1.4 mm 9 W/m2
08:59 12 °C 12 °C 993.02 hPa SSE 46 km/h 39 km/h 97% 1.4 mm 9 W/m2
09:04 12 °C 12 °C 993.02 hPa SSE 41 km/h 38 km/h 97% 1.19 mm 7 W/m2
Compliments of Weather Underground - 2 mb